sensor_id;sensor_type;location;lat;lon;timestamp;temperature;humidity
9772;DHT22;4925;52.588;13.370;2022-08-21T00:01:18;20.10;99.90
9772;DHT22;4925;52.588;13.370;2022-08-21T00:03:44;20.00;99.90
9772;DHT22;4925;52.588;13.370;2022-08-21T00:06:10;20.00;99.90
9772;DHT22;4925;52.588;13.370;2022-08-21T00:08:36;20.00;99.90
9772;DHT22;4925;52.588;13.370;2022-08-21T00:11:03;19.90;99.90
9772;DHT22;4925;52.588;13.370;2022-08-21T00:13:28;19.90;99.90
9772;DHT22;4925;52.588;13.370;2022-08-21T00:15:54;19.80;99.90
9772;DHT22;4925;52.588;13.370;2022-08-21T00:18:20;19.80;99.90
9772;DHT22;4925;52.588;13.370;2022-08-21T00:20:46;19.80;99.90
9772;DHT22;4925;52.588;13.370;2022-08-21T00:25:38;19.80;99.90
9772;DHT22;4925;52.588;13.370;2022-08-21T00:28:05;19.80;99.90
9772;DHT22;4925;52.588;13.370;2022-08-21T00:30:32;19.70;99.90
9772;DHT22;4925;52.588;13.370;2022-08-21T00:32:59;19.80;99.90
9772;DHT22;4925;52.588;13.370;2022-08-21T00:35:28;19.80;99.90
9772;DHT22;4925;52.588;13.370;2022-08-21T00:37:54;19.80;99.90
9772;DHT22;4925;52.588;13.370;2022-08-21T00:40:27;19.80;99.90
9772;DHT22;4925;52.588;13.370;2022-08-21T00:45:21;19.80;99.90
9772;DHT22;4925;52.588;13.370;2022-08-21T00:47:47;19.70;99.90
9772;DHT22;4925;52.588;13.370;2022-08-21T00:50:13;19.70;99.90
9772;DHT22;4925;52.588;13.370;2022-08-21T00:52:40;19.70;99.90
9772;DHT22;4925;52.588;13.370;2022-08-21T00:55:09;19.70;99.90
9772;DHT22;4925;52.588;13.370;2022-08-21T00:57:43;19.70;99.90
9772;DHT22;4925;52.588;13.370;2022-08-21T01:00:13;19.70;99.90
9772;DHT22;4925;52.588;13.370;2022-08-21T01:02:40;19.70;99.90
9772;DHT22;4925;52.588;13.370;2022-08-21T01:05:08;19.70;99.90
9772;DHT22;4925;52.588;13.370;2022-08-21T01:07:33;19.60;99.90
9772;DHT22;4925;52.588;13.370;2022-08-21T01:09:59;19.60;99.90
9772;DHT22;4925;52.588;13.370;2022-08-21T01:12:25;19.60;99.90
9772;DHT22;4925;52.588;13.370;2022-08-21T01:14:52;19.60;99.90
9772;DHT22;4925;52.588;13.370;2022-08-21T01:17:19;19.60;99.90
9772;DHT22;4925;52.588;13.370;2022-08-21T01:19:46;19.60;99.90
9772;DHT22;4925;52.588;13.370;2022-08-21T01:22:12;19.50;99.90
9772;DHT22;4925;52.588;13.370;2022-08-21T01:24:38;19.50;99.90
9772;DHT22;4925;52.588;13.370;2022-08-21T01:27:05;19.90;99.90
9772;DHT22;4925;52.588;13.370;2022-08-21T01:29:47;19.40;99.90
9772;DHT22;4925;52.588;13.370;2022-08-21T01:32:18;19.50;99.90
9772;DHT22;4925;52.588;13.370;2022-08-21T01:34:46;19.50;99.90
9772;DHT22;4925;52.588;13.370;2022-08-21T01:37:12;19.40;99.90
9772;DHT22;4925;52.588;13.370;2022-08-21T01:39:38;19.30;99.90
9772;DHT22;4925;52.588;13.370;2022-08-21T01:42:05;19.30;99.90
9772;DHT22;4925;52.588;13.370;2022-08-21T01:44:31;19.20;99.90
9772;DHT22;4925;52.588;13.370;2022-08-21T01:46:59;19.20;99.90
9772;DHT22;4925;52.588;13.370;2022-08-21T01:49:25;19.10;99.90
9772;DHT22;4925;52.588;13.370;2022-08-21T01:51:50;19.10;99.90
9772;DHT22;4925;52.588;13.370;2022-08-21T01:54:17;19.10;99.90
9772;DHT22;4925;52.588;13.370;2022-08-21T01:56:47;19.10;99.90
9772;DHT22;4925;52.588;13.370;2022-08-21T01:59:14;19.00;99.90
9772;DHT22;4925;52.588;13.370;2022-08-21T02:01:40;19.00;99.90
9772;DHT22;4925;52.588;13.370;2022-08-21T02:04:07;19.00;99.90
9772;DHT22;4925;52.588;13.370;2022-08-21T02:06:33;19.00;99.90
9772;DHT22;4925;52.588;13.370;2022-08-21T02:08:58;19.00;99.90
9772;DHT22;4925;52.588;13.370;2022-08-21T02:11:24;19.00;99.90
9772;DHT22;4925;52.588;13.370;2022-08-21T02:13:50;18.90;99.90
9772;DHT22;4925;52.588;13.370;2022-08-21T02:16:16;18.90;99.90
9772;DHT22;4925;52.588;13.370;2022-08-21T02:18:42;18.90;99.90
9772;DHT22;4925;52.588;13.370;2022-08-21T02:21:08;18.90;99.90
9772;DHT22;4925;52.588;13.370;2022-08-21T02:23:34;18.90;99.90
9772;DHT22;4925;52.588;13.370;2022-08-21T02:26:02;18.80;99.90
9772;DHT22;4925;52.588;13.370;2022-08-21T02:28:28;18.80;99.90
9772;DHT22;4925;52.588;13.370;2022-08-21T02:30:55;18.70;99.90
9772;DHT22;4925;52.588;13.370;2022-08-21T02:33:22;18.70;99.90
9772;DHT22;4925;52.588;13.370;2022-08-21T02:35:48;18.70;99.90
9772;DHT22;4925;52.588;13.370;2022-08-21T02:38:17;18.60;99.90
9772;DHT22;4925;52.588;13.370;2022-08-21T02:40:47;18.60;99.90
9772;DHT22;4925;52.588;13.370;2022-08-21T02:43:14;18.60;99.90
9772;DHT22;4925;52.588;13.370;2022-08-21T02:45:40;18.60;99.90
9772;DHT22;4925;52.588;13.370;2022-08-21T02:48:10;18.60;99.90
9772;DHT22;4925;52.588;13.370;2022-08-21T02:50:54;18.60;99.90
9772;DHT22;4925;52.588;13.370;2022-08-21T02:53:20;18.60;99.90
9772;DHT22;4925;52.588;13.370;2022-08-21T02:55:48;18.50;99.90
9772;DHT22;4925;52.588;13.370;2022-08-21T02:58:16;19.20;99.90
9772;DHT22;4925;52.588;13.370;2022-08-21T03:00:42;18.50;99.90
9772;DHT22;4925;52.588;13.370;2022-08-21T03:05:36;18.40;99.90
9772;DHT22;4925;52.588;13.370;2022-08-21T03:08:04;18.40;99.90
9772;DHT22;4925;52.588;13.370;2022-08-21T03:10:32;18.40;99.90
9772;DHT22;4925;52.588;13.370;2022-08-21T03:12:57;18.60;99.90
9772;DHT22;4925;52.588;13.370;2022-08-21T03:15:24;18.40;99.90
9772;DHT22;4925;52.588;13.370;2022-08-21T03:17:50;18.40;99.90
9772;DHT22;4925;52.588;13.370;2022-08-21T03:20:17;18.40;99.90
9772;DHT22;4925;52.588;13.370;2022-08-21T03:22:43;18.40;99.90
9772;DHT22;4925;52.588;13.370;2022-08-21T03:25:09;18.40;99.90
9772;DHT22;4925;52.588;13.370;2022-08-21T03:27:36;18.40;99.90
9772;DHT22;4925;52.588;13.370;2022-08-21T03:30:04;18.40;99.90
9772;DHT22;4925;52.588;13.370;2022-08-21T03:32:30;18.40;99.90
9772;DHT22;4925;52.588;13.370;2022-08-21T03:34:57;18.40;99.90
9772;DHT22;4925;52.588;13.370;2022-08-21T03:37:23;18.30;99.90
9772;DHT22;4925;52.588;13.370;2022-08-21T03:39:52;18.30;99.90
9772;DHT22;4925;52.588;13.370;2022-08-21T03:42:18;18.20;99.90
9772;DHT22;4925;52.588;13.370;2022-08-21T03:44:44;18.20;99.90
9772;DHT22;4925;52.588;13.370;2022-08-21T03:47:09;18.10;99.90
9772;DHT22;4925;52.588;13.370;2022-08-21T03:49:35;18.00;99.90
9772;DHT22;4925;52.588;13.370;2022-08-21T03:52:02;18.00;99.90
9772;DHT22;4925;52.588;13.370;2022-08-21T03:54:28;18.10;99.90
9772;DHT22;4925;52.588;13.370;2022-08-21T03:56:53;18.10;99.90
9772;DHT22;4925;52.588;13.370;2022-08-21T03:59:20;18.00;99.90
9772;DHT22;4925;52.588;13.370;2022-08-21T04:04:18;17.90;99.90
9772;DHT22;4925;52.588;13.370;2022-08-21T04:06:44;17.90;99.90
9772;DHT22;4925;52.588;13.370;2022-08-21T04:09:09;17.90;99.90
9772;DHT22;4925;52.588;13.370;2022-08-21T04:11:35;17.90;99.90
9772;DHT22;4925;52.588;13.370;2022-08-21T04:14:02;17.90;99.90
9772;DHT22;4925;52.588;13.370;2022-08-21T04:16:28;17.90;99.90
9772;DHT22;4925;52.588;13.370;2022-08-21T04:18:54;17.80;99.90
9772;DHT22;4925;52.588;13.370;2022-08-21T04:21:19;17.80;99.90
9772;DHT22;4925;52.588;13.370;2022-08-21T04:23:45;17.80;99.90
9772;DHT22;4925;52.588;13.370;2022-08-21T04:26:11;17.80;99.90
9772;DHT22;4925;52.588;13.370;2022-08-21T04:28:36;17.70;99.90
9772;DHT22;4925;52.588;13.370;2022-08-21T04:31:02;17.70;99.90
9772;DHT22;4925;52.588;13.370;2022-08-21T04:33:27;17.80;99.90
9772;DHT22;4925;52.588;13.370;2022-08-21T04:35:53;17.80;99.90
9772;DHT22;4925;52.588;13.370;2022-08-21T04:38:19;17.80;99.90
9772;DHT22;4925;52.588;13.370;2022-08-21T04:40:46;17.80;99.90
9772;DHT22;4925;52.588;13.370;2022-08-21T04:43:12;17.80;99.90
9772;DHT22;4925;52.588;13.370;2022-08-21T04:45:42;17.70;99.90
9772;DHT22;4925;52.588;13.370;2022-08-21T04:48:10;17.70;99.90
9772;DHT22;4925;52.588;13.370;2022-08-21T04:51:25;17.80;99.90
9772;DHT22;4925;52.588;13.370;2022-08-21T04:53:30;17.80;99.90
9772;DHT22;4925;52.588;13.370;2022-08-21T04:56:01;17.80;99.90
9772;DHT22;4925;52.588;13.370;2022-08-21T04:58:28;17.80;99.90
9772;DHT22;4925;52.588;13.370;2022-08-21T05:00:55;17.80;99.90
9772;DHT22;4925;52.588;13.370;2022-08-21T05:03:21;17.90;99.90
9772;DHT22;4925;52.588;13.370;2022-08-21T05:05:48;17.90;99.90
9772;DHT22;4925;52.588;13.370;2022-08-21T05:08:16;17.90;99.90
9772;DHT22;4925;52.588;13.370;2022-08-21T05:10:42;17.90;99.90
9772;DHT22;4925;52.588;13.370;2022-08-21T05:13:09;17.90;99.90
9772;DHT22;4925;52.588;13.370;2022-08-21T05:15:35;17.90;99.90
9772;DHT22;4925;52.588;13.370;2022-08-21T05:18:02;17.90;99.90
9772;DHT22;4925;52.588;13.370;2022-08-21T05:20:28;18.00;99.90
9772;DHT22;4925;52.588;13.370;2022-08-21T05:22:54;18.00;99.90
9772;DHT22;4925;52.588;13.370;2022-08-21T05:25:20;18.00;99.90
9772;DHT22;4925;52.588;13.370;2022-08-21T05:27:45;18.00;99.90
9772;DHT22;4925;52.588;13.370;2022-08-21T05:30:11;18.00;99.90
9772;DHT22;4925;52.588;13.370;2022-08-21T05:32:37;18.00;99.90
9772;DHT22;4925;52.588;13.370;2022-08-21T05:35:07;18.10;99.90
9772;DHT22;4925;52.588;13.370;2022-08-21T05:37:34;18.10;99.90
9772;DHT22;4925;52.588;13.370;2022-08-21T05:40:00;18.10;99.90
9772;DHT22;4925;52.588;13.370;2022-08-21T05:42:27;18.20;99.90
9772;DHT22;4925;52.588;13.370;2022-08-21T05:44:53;18.20;99.90
9772;DHT22;4925;52.588;13.370;2022-08-21T05:47:18;18.20;99.90
9772;DHT22;4925;52.588;13.370;2022-08-21T05:49:44;18.20;99.90
9772;DHT22;4925;52.588;13.370;2022-08-21T05:52:10;18.20;99.90
9772;DHT22;4925;52.588;13.370;2022-08-21T05:54:37;18.20;99.90
9772;DHT22;4925;52.588;13.370;2022-08-21T05:57:03;18.20;99.90
9772;DHT22;4925;52.588;13.370;2022-08-21T05:59:28;18.20;99.90
9772;DHT22;4925;52.588;13.370;2022-08-21T06:01:54;18.20;99.90
9772;DHT22;4925;52.588;13.370;2022-08-21T06:04:20;18.30;99.90
9772;DHT22;4925;52.588;13.370;2022-08-21T06:06:45;18.30;99.90
9772;DHT22;4925;52.588;13.370;2022-08-21T06:09:12;18.40;99.90
9772;DHT22;4925;52.588;13.370;2022-08-21T06:11:38;18.40;99.90
9772;DHT22;4925;52.588;13.370;2022-08-21T06:14:04;18.40;99.90
9772;DHT22;4925;52.588;13.370;2022-08-21T06:16:31;18.40;99.90
9772;DHT22;4925;52.588;13.370;2022-08-21T06:18:57;18.50;99.90
9772;DHT22;4925;52.588;13.370;2022-08-21T06:21:23;18.50;99.90
9772;DHT22;4925;52.588;13.370;2022-08-21T06:23:49;18.50;99.90
9772;DHT22;4925;52.588;13.370;2022-08-21T06:26:15;18.50;99.90
9772;DHT22;4925;52.588;13.370;2022-08-21T06:28:41;18.60;99.90
9772;DHT22;4925;52.588;13.370;2022-08-21T06:31:18;18.60;99.90
9772;DHT22;4925;52.588;13.370;2022-08-21T06:33:45;18.70;99.90
9772;DHT22;4925;52.588;13.370;2022-08-21T06:36:11;18.70;99.90
9772;DHT22;4925;52.588;13.370;2022-08-21T06:38:37;18.80;99.90
9772;DHT22;4925;52.588;13.370;2022-08-21T06:41:04;18.80;99.90
9772;DHT22;4925;52.588;13.370;2022-08-21T06:43:30;18.80;99.90
9772;DHT22;4925;52.588;13.370;2022-08-21T06:45:56;18.90;99.90
9772;DHT22;4925;52.588;13.370;2022-08-21T06:48:22;18.80;99.90
9772;DHT22;4925;52.588;13.370;2022-08-21T06:50:48;18.90;99.90
9772;DHT22;4925;52.588;13.370;2022-08-21T06:53:16;19.00;99.90
9772;DHT22;4925;52.588;13.370;2022-08-21T06:55:42;19.00;99.90
9772;DHT22;4925;52.588;13.370;2022-08-21T06:58:08;19.00;99.90
9772;DHT22;4925;52.588;13.370;2022-08-21T07:00:37;19.10;99.90
9772;DHT22;4925;52.588;13.370;2022-08-21T07:03:03;19.10;99.90
9772;DHT22;4925;52.588;13.370;2022-08-21T07:05:30;19.30;99.90
9772;DHT22;4925;52.588;13.370;2022-08-21T07:07:56;19.30;99.90
9772;DHT22;4925;52.588;13.370;2022-08-21T07:10:23;19.30;99.90
9772;DHT22;4925;52.588;13.370;2022-08-21T07:12:50;19.40;99.90
9772;DHT22;4925;52.588;13.370;2022-08-21T07:15:16;19.40;99.90
9772;DHT22;4925;52.588;13.370;2022-08-21T07:17:41;20.00;99.90
9772;DHT22;4925;52.588;13.370;2022-08-21T07:20:07;19.50;99.90
9772;DHT22;4925;52.588;13.370;2022-08-21T07:22:35;19.60;99.90
9772;DHT22;4925;52.588;13.370;2022-08-21T07:25:02;19.70;99.90
9772;DHT22;4925;52.588;13.370;2022-08-21T07:27:27;19.80;99.90
9772;DHT22;4925;52.588;13.370;2022-08-21T07:29:53;20.00;99.90
9772;DHT22;4925;52.588;13.370;2022-08-21T07:32:19;20.10;99.90
9772;DHT22;4925;52.588;13.370;2022-08-21T07:34:44;20.10;99.90
9772;DHT22;4925;52.588;13.370;2022-08-21T07:37:10;20.10;99.90
9772;DHT22;4925;52.588;13.370;2022-08-21T07:39:35;20.60;99.90
9772;DHT22;4925;52.588;13.370;2022-08-21T07:42:01;20.40;99.90
9772;DHT22;4925;52.588;13.370;2022-08-21T07:44:28;20.40;99.90
9772;DHT22;4925;52.588;13.370;2022-08-21T07:46:54;20.50;99.90
9772;DHT22;4925;52.588;13.370;2022-08-21T07:49:19;20.60;99.90
9772;DHT22;4925;52.588;13.370;2022-08-21T07:51:45;20.70;99.90
9772;DHT22;4925;52.588;13.370;2022-08-21T07:54:11;20.70;99.90
9772;DHT22;4925;52.588;13.370;2022-08-21T07:56:37;20.80;99.90
9772;DHT22;4925;52.588;13.370;2022-08-21T07:59:03;20.90;99.90
9772;DHT22;4925;52.588;13.370;2022-08-21T08:01:29;20.90;99.90
9772;DHT22;4925;52.588;13.370;2022-08-21T08:03:55;21.00;99.90
9772;DHT22;4925;52.588;13.370;2022-08-21T08:06:21;21.00;99.90
9772;DHT22;4925;52.588;13.370;2022-08-21T08:08:47;21.10;99.90
9772;DHT22;4925;52.588;13.370;2022-08-21T08:11:13;21.30;99.90
9772;DHT22;4925;52.588;13.370;2022-08-21T08:13:43;21.20;99.90
9772;DHT22;4925;52.588;13.370;2022-08-21T08:16:10;21.30;99.90
9772;DHT22;4925;52.588;13.370;2022-08-21T08:18:36;21.30;99.90
9772;DHT22;4925;52.588;13.370;2022-08-21T08:21:02;21.30;99.90
9772;DHT22;4925;52.588;13.370;2022-08-21T08:23:27;21.40;99.90
9772;DHT22;4925;52.588;13.370;2022-08-21T08:25:53;21.50;99.90
9772;DHT22;4925;52.588;13.370;2022-08-21T08:28:18;21.60;99.90
9772;DHT22;4925;52.588;13.370;2022-08-21T08:30:45;21.70;99.90
9772;DHT22;4925;52.588;13.370;2022-08-21T08:33:11;21.70;99.90
9772;DHT22;4925;52.588;13.370;2022-08-21T08:35:36;21.70;99.90
9772;DHT22;4925;52.588;13.370;2022-08-21T08:38:02;21.80;99.90
9772;DHT22;4925;52.588;13.370;2022-08-21T08:40:35;21.90;99.90
9772;DHT22;4925;52.588;13.370;2022-08-21T08:43:02;22.00;99.90
9772;DHT22;4925;52.588;13.370;2022-08-21T08:45:30;22.10;99.90
9772;DHT22;4925;52.588;13.370;2022-08-21T08:48:02;22.30;99.90
9772;DHT22;4925;52.588;13.370;2022-08-21T08:53:12;22.20;99.90
9772;DHT22;4925;52.588;13.370;2022-08-21T08:55:42;22.10;99.90
9772;DHT22;4925;52.588;13.370;2022-08-21T08:58:20;22.00;99.90
9772;DHT22;4925;52.588;13.370;2022-08-21T09:00:49;22.00;99.90
9772;DHT22;4925;52.588;13.370;2022-08-21T09:03:15;22.00;99.90
9772;DHT22;4925;52.588;13.370;2022-08-21T09:05:48;22.10;99.90
9772;DHT22;4925;52.588;13.370;2022-08-21T09:19:39;22.40;99.90
9772;DHT22;4925;52.588;13.370;2022-08-21T09:24:49;22.40;99.90
9772;DHT22;4925;52.588;13.370;2022-08-21T09:27:19;22.40;99.90
9772;DHT22;4925;52.588;13.370;2022-08-21T09:29:48;22.30;99.90
9772;DHT22;4925;52.588;13.370;2022-08-21T09:32:22;22.40;99.90
9772;DHT22;4925;52.588;13.370;2022-08-21T09:37:21;22.60;99.90
9772;DHT22;4925;52.588;13.370;2022-08-21T09:39:47;22.60;99.90
9772;DHT22;4925;52.588;13.370;2022-08-21T09:42:23;22.60;99.90
9772;DHT22;4925;52.588;13.370;2022-08-21T09:45:07;22.50;99.90
9772;DHT22;4925;52.588;13.370;2022-08-21T09:47:33;22.50;99.90
9772;DHT22;4925;52.588;13.370;2022-08-21T09:50:11;22.50;99.90
9772;DHT22;4925;52.588;13.370;2022-08-21T09:52:46;22.50;99.90
9772;DHT22;4925;52.588;13.370;2022-08-21T09:55:30;22.50;99.90
9772;DHT22;4925;52.588;13.370;2022-08-21T09:58:16;22.70;99.90
9772;DHT22;4925;52.588;13.370;2022-08-21T10:00:42;22.80;99.90
9772;DHT22;4925;52.588;13.370;2022-08-21T10:03:10;22.90;99.90
9772;DHT22;4925;52.588;13.370;2022-08-21T10:05:37;23.00;99.90
9772;DHT22;4925;52.588;13.370;2022-08-21T10:08:03;23.10;99.90
9772;DHT22;4925;52.588;13.370;2022-08-21T10:10:31;23.20;99.90
9772;DHT22;4925;52.588;13.370;2022-08-21T10:13:17;23.30;99.90
9772;DHT22;4925;52.588;13.370;2022-08-21T10:16:20;23.30;99.90
9772;DHT22;4925;52.588;13.370;2022-08-21T10:19:23;23.50;99.90
9772;DHT22;4925;52.588;13.370;2022-08-21T10:22:02;23.60;99.90
9772;DHT22;4925;52.588;13.370;2022-08-21T10:24:52;23.60;99.90
9772;DHT22;4925;52.588;13.370;2022-08-21T10:30:08;23.60;99.90
9772;DHT22;4925;52.588;13.370;2022-08-21T10:35:26;23.70;99.90
9772;DHT22;4925;52.588;13.370;2022-08-21T10:43:04;23.80;99.90
9772;DHT22;4925;52.588;13.370;2022-08-21T10:48:39;24.10;98.60
9772;DHT22;4925;52.588;13.370;2022-08-21T10:51:20;24.20;98.00
9772;DHT22;4925;52.588;13.370;2022-08-21T10:54:07;24.40;96.80
9772;DHT22;4925;52.588;13.370;2022-08-21T10:56:41;24.60;95.10
9772;DHT22;4925;52.588;13.370;2022-08-21T11:01:49;24.80;94.10
9772;DHT22;4925;52.588;13.370;2022-08-21T11:07:32;25.00;92.00
9772;DHT22;4925;52.588;13.370;2022-08-21T11:10:23;24.80;91.30
9772;DHT22;4925;52.588;13.370;2022-08-21T11:13:03;24.90;91.70
9772;DHT22;4925;52.588;13.370;2022-08-21T11:15:56;24.80;84.90
9772;DHT22;4925;52.588;13.370;2022-08-21T11:21:01;25.10;84.30
9772;DHT22;4925;52.588;13.370;2022-08-21T11:23:47;25.70;84.40
9772;DHT22;4925;52.588;13.370;2022-08-21T11:26:51;26.10;81.60
9772;DHT22;4925;52.588;13.370;2022-08-21T11:34:39;26.90;73.20
9772;DHT22;4925;52.588;13.370;2022-08-21T11:37:17;27.10;72.30
9772;DHT22;4925;52.588;13.370;2022-08-21T11:39:55;27.50;71.30
9772;DHT22;4925;52.588;13.370;2022-08-21T11:43:09;27.80;69.00
9772;DHT22;4925;52.588;13.370;2022-08-21T11:48:40;27.80;64.20
9772;DHT22;4925;52.588;13.370;2022-08-21T11:51:18;28.10;63.90
9772;DHT22;4925;52.588;13.370;2022-08-21T11:56:31;28.30;61.70
9772;DHT22;4925;52.588;13.370;2022-08-21T11:59:11;28.60;60.60
9772;DHT22;4925;52.588;13.370;2022-08-21T12:01:43;28.60;61.30
9772;DHT22;4925;52.588;13.370;2022-08-21T12:04:31;28.60;60.30
9772;DHT22;4925;52.588;13.370;2022-08-21T12:07:16;28.80;60.10
9772;DHT22;4925;52.588;13.370;2022-08-21T12:09:53;28.90;60.60
9772;DHT22;4925;52.588;13.370;2022-08-21T12:12:26;29.00;59.80
9772;DHT22;4925;52.588;13.370;2022-08-21T12:18:02;29.30;59.00
9772;DHT22;4925;52.588;13.370;2022-08-21T12:20:42;29.50;58.60
9772;DHT22;4925;52.588;13.370;2022-08-21T12:25:48;29.70;58.10
9772;DHT22;4925;52.588;13.370;2022-08-21T12:28:24;29.50;56.60
9772;DHT22;4925;52.588;13.370;2022-08-21T12:30:51;29.90;56.60
9772;DHT22;4925;52.588;13.370;2022-08-21T12:33:30;30.00;55.70
9772;DHT22;4925;52.588;13.370;2022-08-21T12:36:11;30.00;54.40
9772;DHT22;4925;52.588;13.370;2022-08-21T12:38:54;30.10;53.70
9772;DHT22;4925;52.588;13.370;2022-08-21T12:41:33;30.20;54.50
9772;DHT22;4925;52.588;13.370;2022-08-21T12:44:05;30.50;54.60
9772;DHT22;4925;52.588;13.370;2022-08-21T12:46:35;30.60;54.20
9772;DHT22;4925;52.588;13.370;2022-08-21T12:49:09;30.50;53.70
9772;DHT22;4925;52.588;13.370;2022-08-21T12:54:29;30.20;54.00
9772;DHT22;4925;52.588;13.370;2022-08-21T12:57:01;30.30;55.10
9772;DHT22;4925;52.588;13.370;2022-08-21T12:59:27;30.30;54.30
9772;DHT22;4925;52.588;13.370;2022-08-21T13:01:54;30.30;54.90
9772;DHT22;4925;52.588;13.370;2022-08-21T13:04:37;30.20;54.50
9772;DHT22;4925;52.588;13.370;2022-08-21T13:07:11;30.30;54.90
9772;DHT22;4925;52.588;13.370;2022-08-21T13:09:55;30.30;55.00
9772;DHT22;4925;52.588;13.370;2022-08-21T13:12:22;30.40;54.90
9772;DHT22;4925;52.588;13.370;2022-08-21T13:14:49;30.00;53.80
9772;DHT22;4925;52.588;13.370;2022-08-21T13:17:18;29.50;53.70
9772;DHT22;4925;52.588;13.370;2022-08-21T13:19:58;29.10;54.00
9772;DHT22;4925;52.588;13.370;2022-08-21T13:22:25;28.90;55.20
9772;DHT22;4925;52.588;13.370;2022-08-21T13:24:51;28.90;55.80
9772;DHT22;4925;52.588;13.370;2022-08-21T13:27:19;28.80;57.00
9772;DHT22;4925;52.588;13.370;2022-08-21T13:29:45;28.60;57.90
9772;DHT22;4925;52.588;13.370;2022-08-21T13:32:21;28.60;59.60
9772;DHT22;4925;52.588;13.370;2022-08-21T13:34:47;28.60;60.60
9772;DHT22;4925;52.588;13.370;2022-08-21T13:37:13;28.60;61.20
9772;DHT22;4925;52.588;13.370;2022-08-21T13:39:39;28.60;60.40
9772;DHT22;4925;52.588;13.370;2022-08-21T13:42:10;28.70;60.90
9772;DHT22;4925;52.588;13.370;2022-08-21T13:44:43;28.80;61.30
9772;DHT22;4925;52.588;13.370;2022-08-21T13:47:12;28.70;60.70
9772;DHT22;4925;52.588;13.370;2022-08-21T13:49:49;28.00;62.00
9772;DHT22;4925;52.588;13.370;2022-08-21T13:52:25;28.00;63.20
9772;DHT22;4925;52.588;13.370;2022-08-21T13:55:00;27.70;63.90
9772;DHT22;4925;52.588;13.370;2022-08-21T13:57:33;27.30;66.30
9772;DHT22;4925;52.588;13.370;2022-08-21T14:01:15;26.60;67.90
9772;DHT22;4925;52.588;13.370;2022-08-21T14:03:09;26.50;70.20
9772;DHT22;4925;52.588;13.370;2022-08-21T14:05:44;26.30;71.30
9772;DHT22;4925;52.588;13.370;2022-08-21T14:08:21;26.30;72.00
9772;DHT22;4925;52.588;13.370;2022-08-21T14:10:50;26.40;71.90
9772;DHT22;4925;52.588;13.370;2022-08-21T14:16:27;26.60;73.40
9772;DHT22;4925;52.588;13.370;2022-08-21T14:19:41;26.60;71.00
9772;DHT22;4925;52.588;13.370;2022-08-21T14:21:58;26.60;71.80
9772;DHT22;4925;52.588;13.370;2022-08-21T14:24:27;26.60;72.50
9772;DHT22;4925;52.588;13.370;2022-08-21T14:26:54;26.50;72.50
9772;DHT22;4925;52.588;13.370;2022-08-21T14:29:24;26.40;72.30
9772;DHT22;4925;52.588;13.370;2022-08-21T14:31:52;26.40;73.20
9772;DHT22;4925;52.588;13.370;2022-08-21T14:34:19;26.30;73.50
9772;DHT22;4925;52.588;13.370;2022-08-21T14:36:46;26.10;74.50
9772;DHT22;4925;52.588;13.370;2022-08-21T14:39:12;26.00;72.70
9772;DHT22;4925;52.588;13.370;2022-08-21T14:41:38;26.00;73.60
9772;DHT22;4925;52.588;13.370;2022-08-21T14:44:04;25.90;75.10
9772;DHT22;4925;52.588;13.370;2022-08-21T14:46:30;25.70;74.70
9772;DHT22;4925;52.588;13.370;2022-08-21T14:48:57;25.50;76.60
9772;DHT22;4925;52.588;13.370;2022-08-21T14:51:24;25.50;77.40
9772;DHT22;4925;52.588;13.370;2022-08-21T14:53:49;25.40;78.90
9772;DHT22;4925;52.588;13.370;2022-08-21T14:56:15;25.40;80.90
9772;DHT22;4925;52.588;13.370;2022-08-21T14:58:46;25.40;81.60
9772;DHT22;4925;52.588;13.370;2022-08-21T15:01:14;25.20;80.20
9772;DHT22;4925;52.588;13.370;2022-08-21T15:03:42;25.30;82.60
9772;DHT22;4925;52.588;13.370;2022-08-21T15:06:08;25.40;83.10
9772;DHT22;4925;52.588;13.370;2022-08-21T15:08:34;25.50;80.90
9772;DHT22;4925;52.588;13.370;2022-08-21T15:11:02;25.60;80.80
9772;DHT22;4925;52.588;13.370;2022-08-21T15:13:28;25.60;80.00
9772;DHT22;4925;52.588;13.370;2022-08-21T15:15:54;25.50;80.20
9772;DHT22;4925;52.588;13.370;2022-08-21T15:18:22;25.50;81.90
9772;DHT22;4925;52.588;13.370;2022-08-21T15:20:48;25.40;81.40
9772;DHT22;4925;52.588;13.370;2022-08-21T15:23:15;25.40;81.90
9772;DHT22;4925;52.588;13.370;2022-08-21T15:25:45;25.20;83.00
9772;DHT22;4925;52.588;13.370;2022-08-21T15:28:12;25.10;83.10
9772;DHT22;4925;52.588;13.370;2022-08-21T15:30:41;24.90;83.50
9772;DHT22;4925;52.588;13.370;2022-08-21T15:33:07;24.90;85.10
9772;DHT22;4925;52.588;13.370;2022-08-21T15:35:34;24.80;84.60
9772;DHT22;4925;52.588;13.370;2022-08-21T15:38:00;24.70;86.20
9772;DHT22;4925;52.588;13.370;2022-08-21T15:40:26;24.80;87.70
9772;DHT22;4925;52.588;13.370;2022-08-21T15:42:57;24.70;86.60
9772;DHT22;4925;52.588;13.370;2022-08-21T15:45:23;24.80;85.40
9772;DHT22;4925;52.588;13.370;2022-08-21T15:47:50;24.80;86.50
9772;DHT22;4925;52.588;13.370;2022-08-21T15:50:16;24.70;86.60
9772;DHT22;4925;52.588;13.370;2022-08-21T15:52:42;24.70;87.60
9772;DHT22;4925;52.588;13.370;2022-08-21T15:55:09;24.60;86.10
9772;DHT22;4925;52.588;13.370;2022-08-21T15:57:36;24.60;86.80
9772;DHT22;4925;52.588;13.370;2022-08-21T16:00:11;24.50;88.40
9772;DHT22;4925;52.588;13.370;2022-08-21T16:02:39;24.50;89.50
9772;DHT22;4925;52.588;13.370;2022-08-21T16:05:07;24.50;89.60
9772;DHT22;4925;52.588;13.370;2022-08-21T16:07:33;24.50;90.10
9772;DHT22;4925;52.588;13.370;2022-08-21T16:09:58;24.50;90.10
9772;DHT22;4925;52.588;13.370;2022-08-21T16:12:28;24.50;90.00
9772;DHT22;4925;52.588;13.370;2022-08-21T16:14:56;24.50;87.80
9772;DHT22;4925;52.588;13.370;2022-08-21T16:17:30;24.50;88.10
9772;DHT22;4925;52.588;13.370;2022-08-21T16:19:56;24.50;88.90
9772;DHT22;4925;52.588;13.370;2022-08-21T16:22:22;24.50;89.00
9772;DHT22;4925;52.588;13.370;2022-08-21T16:24:48;24.50;90.30
9772;DHT22;4925;52.588;13.370;2022-08-21T16:27:14;24.50;91.00
9772;DHT22;4925;52.588;13.370;2022-08-21T16:29:42;24.30;90.90
9772;DHT22;4925;52.588;13.370;2022-08-21T16:32:07;24.30;91.20
9772;DHT22;4925;52.588;13.370;2022-08-21T16:34:33;24.30;91.50
9772;DHT22;4925;52.588;13.370;2022-08-21T16:36:59;24.30;91.90
9772;DHT22;4925;52.588;13.370;2022-08-21T16:39:25;24.30;92.10
9772;DHT22;4925;52.588;13.370;2022-08-21T16:41:50;24.30;92.60
9772;DHT22;4925;52.588;13.370;2022-08-21T16:44:18;24.30;93.20
9772;DHT22;4925;52.588;13.370;2022-08-21T16:46:44;24.20;94.00
9772;DHT22;4925;52.588;13.370;2022-08-21T16:49:09;24.30;94.40
9772;DHT22;4925;52.588;13.370;2022-08-21T16:51:36;24.30;94.70
9772;DHT22;4925;52.588;13.370;2022-08-21T16:54:02;24.30;95.10
9772;DHT22;4925;52.588;13.370;2022-08-21T16:56:29;24.10;95.20
9772;DHT22;4925;52.588;13.370;2022-08-21T16:58:56;24.20;95.70
9772;DHT22;4925;52.588;13.370;2022-08-21T17:01:25;24.20;96.00
9772;DHT22;4925;52.588;13.370;2022-08-21T17:03:52;24.20;96.00
9772;DHT22;4925;52.588;13.370;2022-08-21T17:06:19;24.20;96.50
9772;DHT22;4925;52.588;13.370;2022-08-21T17:08:45;24.10;96.40
9772;DHT22;4925;52.588;13.370;2022-08-21T17:11:36;24.10;96.80